Amboy, Minnesota
Current Conditions -  °F | °C
As of 4:15 AM on Sunday 26 Oct 2014 (Local Time) from KJYG Reporting Station
Clear Clear  
Wind Chill: 36°   Ceiling: Unl
Heat Index: 36°   Visibility: 10mi
Dew Point: 30°   Wind: 3mph
Humidity: 81%   Direction: 150°SSE
Pressure: 30.01"   Gusts: NA
Location:  43.89°N, 94.16°W
Report Text: KJYG 260915Z AUTO 15003KT 10SM CLR 02/M01 A3001 RMK AO2
Loading
Personal Weather Stations






























Interactive Weather Map
Tropical Storm Tracking
New forecast layout! Learn more

10-Day Weather Forecast

Advertisements
Track Severe Weather on mobile